Time;durP1;ratioP1;P1;durP2;ratioP2;P2;SDS_P1;SDS_P2;PMS_P1;PMS_P2;Temp;Humidity;BMP_temperature;BMP_pressure;BME280_temperature;BME280_humidity;BME280_pressure;Samples;Min_cycle;Max_cycle;Signal;HPM_P1;HPM_P2
2023/08/14 00:01:40;;;;;;;13.23;5.97;;;;;;;16.08;100.00;101524.19;5089945;28;20499;-70
2023/08/14 00:04:05;;;;;;;10.25;5.88;;;;;;;16.10;100.00;101524.81;5089814;28;20365;-70
2023/08/14 00:06:31;;;;;;;10.32;5.90;;;;;;;16.06;100.00;101523.59;5089794;28;20058;-70
2023/08/14 00:08:56;;;;;;;12.98;6.25;;;;;;;16.02;100.00;101527.75;5089726;28;20611;-70
2023/08/14 00:11:22;;;;;;;11.60;6.25;;;;;;;16.01;100.00;101523.44;5089905;28;20027;-70
2023/08/14 00:13:54;;;;;;;11.82;5.78;;;;;;;16.02;100.00;101532.31;5089703;28;20471;-70
2023/08/14 00:16:20;;;;;;;10.63;6.03;;;;;;;15.89;100.00;101531.34;5089702;28;20062;-70
2023/08/14 00:18:46;;;;;;;8.55;5.65;;;;;;;15.86;100.00;101528.25;5089475;28;20043;-70
2023/08/14 00:21:12;;;;;;;11.25;6.43;;;;;;;15.89;100.00;101534.03;5089583;28;20016;-69
2023/08/14 00:23:38;;;;;;;11.20;5.78;;;;;;;15.90;100.00;101532.16;5089289;28;20035;-71
2023/08/14 00:26:04;;;;;;;9.30;5.47;;;;;;;15.89;100.00;101517.06;5089363;28;20036;-71
2023/08/14 00:28:30;;;;;;;10.20;6.65;;;;;;;15.91;100.00;101510.44;5089364;28;20305;-70
2023/08/14 00:30:55;;;;;;;13.20;7.43;;;;;;;15.89;100.00;101512.50;5089497;28;20036;-70
2023/08/14 00:33:21;;;;;;;9.40;5.38;;;;;;;15.85;100.00;101508.63;5089283;28;20034;-70
2023/08/14 00:35:46;;;;;;;12.27;6.03;;;;;;;15.81;100.00;101502.00;5089321;28;20055;-70
2023/08/14 00:38:11;;;;;;;13.57;7.65;;;;;;;15.81;100.00;101507.38;5089315;28;20028;-70
2023/08/14 00:40:39;;;;;;;13.50;6.90;;;;;;;15.82;100.00;101505.50;5089222;28;20052;-70
2023/08/14 00:43:04;;;;;;;15.05;7.88;;;;;;;15.84;100.00;101509.63;5089169;28;20107;-70
2023/08/14 00:45:30;;;;;;;12.75;6.40;;;;;;;15.86;100.00;101514.81;5089213;28;20574;-70
2023/08/14 00:47:56;;;;;;;11.57;7.10;;;;;;;15.86;100.00;101515.63;5089477;28;20089;-70
2023/08/14 00:50:23;;;;;;;10.95;5.68;;;;;;;15.81;100.00;101512.75;5089183;28;20032;-70
2023/08/14 00:52:53;;;;;;;9.70;6.03;;;;;;;15.81;100.00;101515.44;5088376;28;20406;-70
2023/08/14 00:55:28;;;;;;;12.13;6.55;;;;;;;15.74;100.00;101499.34;5088829;28;20522;-70
2023/08/14 00:57:54;;;;;;;10.85;6.38;;;;;;;15.77;100.00;101509.69;5089167;28;20034;-70
2023/08/14 01:00:20;;;;;;;11.85;6.45;;;;;;;15.74;100.00;101503.91;5089062;28;20031;-70
2023/08/14 01:02:48;;;;;;;11.48;7.13;;;;;;;15.74;100.00;101501.22;5089039;28;20554;-70
2023/08/14 01:05:13;;;;;;;9.88;5.80;;;;;;;15.75;100.00;101503.69;5088967;28;20055;-70
2023/08/14 01:07:38;;;;;;;9.55;5.47;;;;;;;15.79;100.00;101506.75;5088933;28;20059;-70
2023/08/14 01:10:07;;;;;;;12.23;6.55;;;;;;;15.78;100.00;101500.56;5088978;28;20467;-70
2023/08/14 01:12:42;;;;;;;12.43;6.20;;;;;;;15.76;100.00;101497.25;5087470;28;20066;-70
2023/08/14 01:15:34;;;;;;;11.50;7.30;;;;;;;15.78;100.00;101489.81;5083196;28;20039;-71
2023/08/14 01:18:01;;;;;;;10.73;6.10;;;;;;;15.80;100.00;101494.13;5088711;28;20028;-70
2023/08/14 01:20:30;;;;;;;11.52;5.90;;;;;;;15.80;100.00;101491.44;5088788;28;20578;-70
2023/08/14 01:23:04;;;;;;;11.75;6.72;;;;;;;15.81;100.00;101490.44;5088767;28;20036;-70
2023/08/14 01:25:31;;;;;;;11.88;5.95;;;;;;;15.81;100.00;101485.03;5088715;28;20062;-70
2023/08/14 01:27:58;;;;;;;12.57;6.38;;;;;;;15.76;100.00;101491.88;5088772;28;20036;-70
2023/08/14 01:30:24;;;;;;;8.00;5.18;;;;;;;15.75;100.00;101500.19;5088570;28;20028;-70
2023/08/14 01:32:50;;;;;;;12.25;6.63;;;;;;;15.72;100.00;101489.88;5087418;28;20036;-70
2023/08/14 01:35:18;;;;;;;9.98;5.65;;;;;;;15.62;100.00;101470.66;5088788;28;20028;-70
2023/08/14 01:37:51;;;;;;;10.05;5.93;;;;;;;15.64;100.00;101482.84;5069320;28;20093;-70
2023/08/14 01:40:28;;;;;;;10.60;6.25;;;;;;;15.60;100.00;101475.41;5088450;28;20106;-70
2023/08/14 01:42:59;;;;;;;12.00;6.13;;;;;;;15.54;100.00;101477.91;5088659;28;20119;-70
2023/08/14 01:45:27;;;;;;;11.65;6.85;;;;;;;15.50;100.00;101478.53;5088557;28;20020;-70
2023/08/14 01:47:55;;;;;;;13.25;6.28;;;;;;;15.48;100.00;101476.09;5088652;28;20060;-70
2023/08/14 01:50:21;;;;;;;13.85;7.13;;;;;;;15.46;100.00;101466.59;5088290;28;20028;-70
2023/08/14 01:52:48;;;;;;;11.15;5.95;;;;;;;15.47;100.00;101469.03;5088463;28;20074;-70
2023/08/14 01:55:13;;;;;;;11.38;6.00;;;;;;;15.46;100.00;101461.22;5088425;28;20036;-70
2023/08/14 01:57:39;;;;;;;9.93;6.10;;;;;;;15.41;100.00;101456.47;5088572;28;20035;-70
2023/08/14 02:00:09;;;;;;;10.65;6.18;;;;;;;15.35;100.00;101451.94;5087202;28;20046;-70
2023/08/14 02:02:35;;;;;;;11.88;6.07;;;;;;;15.36;100.00;101444.72;5069107;28;20036;-70
2023/08/14 02:05:00;;;;;;;15.60;5.65;;;;;;;15.35;100.00;101446.53;5071852;28;20924;-70
2023/08/14 02:07:26;;;;;;;10.73;6.20;;;;;;;15.32;100.00;101447.81;5071422;28;20101;-70
2023/08/14 02:09:51;;;;;;;11.43;5.78;;;;;;;15.37;100.00;101447.16;5072729;28;20091;-70
2023/08/14 02:12:17;;;;;;;12.02;6.00;;;;;;;15.30;100.00;101435.63;5072659;28;20033;-70
2023/08/14 02:14:42;;;;;;;9.23;5.80;;;;;;;15.36;100.00;101450.09;5072713;28;20056;-70
2023/08/14 02:17:07;;;;;;;8.93;5.80;;;;;;;15.33;100.00;101435.22;5072592;28;20029;-70
2023/08/14 02:19:33;;;;;;;13.18;7.00;;;;;;;15.33;100.00;101435.22;5072447;28;20032;-70
2023/08/14 02:21:58;;;;;;;11.48;5.90;;;;;;;15.34;100.00;101432.28;5071083;28;20123;-70
2023/08/14 02:24:23;;;;;;;13.50;6.80;;;;;;;15.23;100.00;101413.34;5072388;28;20036;-70
2023/08/14 02:26:49;;;;;;;14.18;6.88;;;;;;;15.28;100.00;101422.41;5090118;28;20592;-70
2023/08/14 02:29:14;;;;;;;10.93;6.25;;;;;;;15.21;100.00;101418.91;5091704;28;20036;-70
2023/08/14 02:31:39;;;;;;;10.73;5.55;;;;;;;15.16;100.00;101423.28;5091864;28;20036;-70
2023/08/14 02:34:05;;;;;;;11.15;6.78;;;;;;;15.10;100.00;101417.72;5091473;28;20036;-70
2023/08/14 02:36:30;;;;;;;12.68;6.78;;;;;;;15.11;100.00;101421.22;5091637;28;20068;-70
2023/08/14 02:38:56;;;;;;;13.00;7.35;;;;;;;15.09;100.00;101423.28;5091777;28;20434;-70
2023/08/14 02:41:21;;;;;;;12.05;7.10;;;;;;;15.09;100.00;101421.47;5091239;28;20055;-70
2023/08/14 02:43:47;;;;;;;11.90;6.45;;;;;;;15.07;100.00;101423.53;5091391;28;20548;-70
2023/08/14 02:46:13;;;;;;;13.20;7.85;;;;;;;15.04;100.00;101418.59;5091348;28;20059;-70
2023/08/14 02:48:38;;;;;;;12.35;7.15;;;;;;;15.00;100.00;101416.53;5091202;28;20471;-70
2023/08/14 02:51:04;;;;;;;15.98;8.30;;;;;;;15.01;100.00;101431.59;5091163;28;20040;-70
2023/08/14 02:53:30;;;;;;;12.30;6.38;;;;;;;15.00;100.00;101424.59;5091048;28;20528;-70
2023/08/14 02:55:56;;;;;;;11.52;6.35;;;;;;;15.02;100.00;101423.34;5091044;28;20028;-70
2023/08/14 02:58:21;;;;;;;12.98;6.72;;;;;;;15.01;100.00;101426.22;5090930;28;20468;-70
2023/08/14 03:00:48;;;;;;;10.00;5.90;;;;;;;14.99;100.00;101426.44;5091114;28;20043;-70
2023/08/14 03:03:14;;;;;;;12.60;7.25;;;;;;;14.93;100.00;101421.09;5074171;28;20047;-70
2023/08/14 03:05:39;;;;;;;11.00;6.70;;;;;;;14.98;100.00;101427.47;5070653;28;20873;-70
2023/08/14 03:08:05;;;;;;;14.88;8.18;;;;;;;15.00;100.00;101428.09;5070292;28;20037;-70
2023/08/14 03:10:31;;;;;;;13.93;7.93;;;;;;;15.05;100.00;101425.59;5071613;28;20036;-70
2023/08/14 03:12:57;;;;;;;17.13;8.25;;;;;;;15.08;100.00;101427.03;5090822;28;20040;-70
2023/08/14 03:15:22;;;;;;;13.65;8.43;;;;;;;15.07;100.00;101428.09;5089905;28;20043;-70
2023/08/14 03:17:48;;;;;;;16.20;8.48;;;;;;;15.10;100.00;101425.78;5090430;28;20091;-70
2023/08/14 03:20:14;;;;;;;18.05;8.82;;;;;;;15.14;100.00;101431.53;5090614;28;20064;-70
2023/08/14 03:22:39;;;;;;;14.07;7.30;;;;;;;15.09;100.00;101420.59;5090606;28;20483;-70
2023/08/14 03:25:05;;;;;;;14.73;7.43;;;;;;;15.03;100.00;101424.16;5090686;28;20352;-70
2023/08/14 03:27:31;;;;;;;12.23;7.75;;;;;;;15.03;100.00;101426.84;5090460;28;20035;-70
2023/08/14 03:29:56;;;;;;;16.40;7.55;;;;;;;15.05;100.00;101428.28;5090506;28;20028;-70
2023/08/14 03:32:21;;;;;;;12.95;7.97;;;;;;;14.97;100.00;101419.63;5090568;28;20115;-70
2023/08/14 03:34:47;;;;;;;12.10;7.20;;;;;;;14.95;100.00;101419.84;5090464;28;20435;-70
2023/08/14 03:37:12;;;;;;;13.05;7.43;;;;;;;14.93;100.00;101421.91;5089053;28;20031;-70
2023/08/14 03:39:37;;;;;;;13.27;7.30;;;;;;;14.87;100.00;101418.22;5089137;28;20039;-70
2023/08/14 03:42:03;;;;;;;15.35;8.63;;;;;;;14.92;100.00;101414.06;5090231;28;20052;-70
2023/08/14 03:44:28;;;;;;;16.60;8.68;;;;;;;14.89;100.00;101415.31;5090275;28;20027;-70
2023/08/14 03:46:53;;;;;;;14.98;7.53;;;;;;;14.90;100.00;101408.91;5090264;28;20032;-70
2023/08/14 03:49:19;;;;;;;16.27;8.02;;;;;;;14.89;100.00;101415.31;5090348;28;20072;-70
2023/08/14 03:51:44;;;;;;;23.98;9.60;;;;;;;14.89;100.00;101413.47;5089994;28;20854;-70
2023/08/14 03:54:09;;;;;;;17.73;9.20;;;;;;;14.93;100.00;101421.91;5089941;28;20039;-70
2023/08/14 03:56:35;;;;;;;15.82;8.40;;;;;;;14.88;100.00;101414.50;5089914;28;20107;-70
2023/08/14 03:59:00;;;;;;;14.02;8.73;;;;;;;15.00;100.00;101421.91;5090177;28;20113;-70
2023/08/14 04:01:26;;;;;;;16.35;9.65;;;;;;;14.99;100.00;101422.94;5088369;28;20032;-70
2023/08/14 04:03:51;;;;;;;15.15;7.63;;;;;;;14.95;100.00;101424.38;5089902;28;20047;-70
2023/08/14 04:06:18;;;;;;;14.35;7.35;;;;;;;14.85;100.00;101420.28;5089923;28;20020;-70
2023/08/14 04:08:43;;;;;;;17.63;8.65;;;;;;;14.79;100.00;101415.75;5089883;28;20035;-70
2023/08/14 04:11:09;;;;;;;14.75;8.38;;;;;;;14.75;100.00;101414.53;5089851;28;20036;-70
2023/08/14 04:13:35;;;;;;;15.63;8.25;;;;;;;14.79;100.00;101417.63;5069226;28;20028;-70
2023/08/14 04:16:00;;;;;;;15.98;8.50;;;;;;;14.80;100.00;101421.94;5070250;28;20067;-70
2023/08/14 04:18:29;;;;;;;16.02;9.15;;;;;;;14.76;100.00;101410.81;5070055;28;20033;-70
2023/08/14 04:20:55;;;;;;;13.55;7.80;;;;;;;14.70;100.00;101417.03;5069173;28;20028;-70
2023/08/14 04:23:22;;;;;;;13.23;8.15;;;;;;;14.69;100.00;101420.72;5069120;28;20058;-70
2023/08/14 04:25:47;;;;;;;18.23;9.38;;;;;;;14.66;100.00;101413.91;5075509;28;20043;-70
2023/08/14 04:28:13;;;;;;;17.13;8.27;;;;;;;14.65;100.00;101403.41;5087960;28;20028;-70
2023/08/14 04:30:38;;;;;;;13.65;7.25;;;;;;;14.59;100.00;101398.84;5087927;28;20032;-71
2023/08/14 04:33:03;;;;;;;17.15;8.65;;;;;;;14.62;100.00;101401.16;5088855;28;20055;-70
2023/08/14 04:35:29;;;;;;;14.43;7.82;;;;;;;14.57;100.00;101390.22;5088093;28;20038;-70
2023/08/14 04:37:54;;;;;;;14.63;8.85;;;;;;;14.64;100.00;101391.00;5077601;28;20032;-70
2023/08/14 04:40:20;;;;;;;21.25;9.25;;;;;;;14.61;100.00;101386.88;5077950;28;20111;-70
2023/08/14 04:42:45;;;;;;;14.85;8.50;;;;;;;14.59;100.00;101380.06;5078343;28;20055;-70
2023/08/14 04:45:10;;;;;;;15.02;8.15;;;;;;;14.63;100.00;101387.50;5089246;28;20044;-70
2023/08/14 04:47:36;;;;;;;13.45;7.68;;;;;;;14.69;100.00;101380.47;5089114;28;20046;-70
2023/08/14 04:50:01;;;;;;;13.35;7.15;;;;;;;14.68;100.00;101384.19;5089004;28;20028;-70
2023/08/14 04:52:26;;;;;;;14.45;8.55;;;;;;;14.69;100.00;101383.16;5087702;28;20032;-70
2023/08/14 04:54:52;;;;;;;14.85;7.80;;;;;;;14.71;100.00;101385.63;5088939;28;20458;-70
2023/08/14 04:57:17;;;;;;;18.88;9.90;;;;;;;14.79;100.00;101382.72;5088989;28;20196;-70
2023/08/14 04:59:43;;;;;;;16.60;9.43;;;;;;;14.80;100.00;101385.19;5087479;28;20032;-70
2023/08/14 05:02:08;;;;;;;16.88;8.48;;;;;;;14.88;100.00;101384.97;5088786;28;20043;-70
2023/08/14 05:04:33;;;;;;;18.52;7.88;;;;;;;14.89;100.00;101373.16;5088626;28;20410;-70
2023/08/14 05:06:59;;;;;;;16.27;8.75;;;;;;;14.95;100.00;101368.81;5087282;28;20042;-70
2023/08/14 05:09:24;;;;;;;14.40;8.77;;;;;;;14.99;100.00;101371.91;5088685;28;20027;-70
2023/08/14 05:11:49;;;;;;;20.42;9.88;;;;;;;15.09;100.00;101372.25;5088774;28;20399;-70
2023/08/14 05:14:18;;;;;;;14.20;8.63;;;;;;;15.16;100.00;101365.00;5088683;28;20036;-70
2023/08/14 05:16:44;;;;;;;15.98;8.88;;;;;;;15.27;100.00;101366.16;5088722;28;20032;-70
2023/08/14 05:19:10;;;;;;;16.40;8.55;;;;;;;15.34;100.00;101365.09;5069282;28;20221;-70
2023/08/14 05:21:35;;;;;;;17.27;9.93;;;;;;;15.46;100.00;101362.56;5068117;28;20146;-70
2023/08/14 05:24:00;;;;;;;16.63;10.43;;;;;;;15.60;100.00;101357.09;5068122;28;20029;-70
2023/08/14 05:26:26;;;;;;;17.95;11.25;;;;;;;15.70;100.00;101360.16;5069164;28;20055;-70
2023/08/14 05:28:51;;;;;;;18.58;11.02;;;;;;;15.82;100.00;101371.03;5069274;28;20041;-70
2023/08/14 05:31:16;;;;;;;19.50;10.48;;;;;;;15.93;100.00;101360.41;5069281;28;20368;-70
2023/08/14 05:33:42;;;;;;;19.13;10.10;;;;;;;15.98;100.00;101362.41;5067865;28;20046;-70
2023/08/14 05:36:07;;;;;;;18.02;10.52;;;;;;;15.99;100.00;101367.56;5069327;28;20052;-70
2023/08/14 05:38:32;;;;;;;20.05;10.40;;;;;;;16.08;100.00;101373.50;5068894;28;20032;-70
2023/08/14 05:40:58;;;;;;;20.48;12.43;;;;;;;16.10;100.00;101368.72;5072808;28;20406;-70
2023/08/14 05:43:23;;;;;;;21.10;12.82;;;;;;;16.11;100.00;101372.22;5072021;28;20148;-70
2023/08/14 05:45:49;;;;;;;19.20;11.95;;;;;;;16.17;100.00;101379.44;5072895;28;20151;-70
2023/08/14 05:48:14;;;;;;;18.95;11.57;;;;;;;16.18;100.00;101376.50;5072877;28;20537;-70
2023/08/14 05:50:40;;;;;;;21.02;13.05;;;;;;;16.22;100.00;101376.91;5072986;28;20032;-70
2023/08/14 05:53:07;;;;;;;22.08;12.55;;;;;;;16.25;100.00;101381.84;5072560;28;20126;-70
2023/08/14 05:55:34;;;;;;;21.40;13.65;;;;;;;16.28;100.00;101388.66;5072740;28;20032;-70
2023/08/14 05:58:00;;;;;;;21.98;13.40;;;;;;;16.27;100.00;101390.53;5072490;28;20028;-70
2023/08/14 06:00:25;;;;;;;19.77;14.02;;;;;;;16.24;100.00;101390.13;5072653;28;20031;-70
2023/08/14 06:02:51;;;;;;;18.90;13.07;;;;;;;16.27;100.00;101393.22;5072574;28;20044;-70
2023/08/14 06:05:17;;;;;;;19.65;13.13;;;;;;;16.26;100.00;101396.13;5072546;28;20025;-70
2023/08/14 06:07:42;;;;;;;25.33;14.77;;;;;;;16.31;100.00;101407.88;5072608;28;20039;-70
2023/08/14 06:10:08;;;;;;;22.35;13.63;;;;;;;16.31;100.00;101409.75;5072237;28;20472;-71
2023/08/14 06:12:34;;;;;;;22.45;14.02;;;;;;;16.30;100.00;101405.41;5072671;28;20032;-70
2023/08/14 06:14:59;;;;;;;21.52;14.77;;;;;;;16.33;100.00;101404.97;5070949;28;20036;-70
2023/08/14 06:17:26;;;;;;;22.30;15.80;;;;;;;16.35;100.00;101405.59;5072401;28;20166;-70
2023/08/14 06:19:51;;;;;;;21.85;15.00;;;;;;;16.36;100.00;101410.72;5072373;28;20032;-70
2023/08/14 06:22:17;;;;;;;22.95;17.33;;;;;;;16.38;100.00;101402.44;5072200;28;20512;-71
2023/08/14 06:24:43;;;;;;;23.50;15.55;;;;;;;16.42;100.00;101419.78;5071019;28;20052;-69
2023/08/14 06:27:08;;;;;;;23.00;15.93;;;;;;;16.43;100.00;101416.88;5072050;28;20054;-69
2023/08/14 06:29:34;;;;;;;20.50;15.80;;;;;;;16.47;100.00;101405.66;5072249;28;20486;-70
2023/08/14 06:32:00;;;;;;;21.50;16.38;;;;;;;16.51;100.00;101404.19;5071985;28;20028;-69
2023/08/14 06:34:26;;;;;;;23.10;16.10;;;;;;;16.52;100.00;101403.94;5071880;28;20043;-70
2023/08/14 06:36:52;;;;;;;23.73;17.38;;;;;;;16.59;100.00;101403.88;5072125;28;20032;-69
2023/08/14 06:39:17;;;;;;;29.15;17.10;;;;;;;16.64;100.00;101399.47;5090853;28;20028;-70
2023/08/14 06:41:42;;;;;;;23.35;14.98;;;;;;;16.76;100.00;101391.47;5089637;28;21070;-69
2023/08/14 06:44:11;;;;;;;23.60;14.98;;;;;;;16.90;100.00;101394.03;5091370;28;20060;-69
2023/08/14 06:46:37;;;;;;;21.77;14.68;;;;;;;17.07;100.00;101395.91;5091334;28;20027;-70
2023/08/14 06:49:03;;;;;;;23.05;15.20;;;;;;;17.23;100.00;101393.63;5091349;28;20089;-69
2023/08/14 06:51:29;;;;;;;23.00;16.83;;;;;;;17.36;100.00;101388.06;5090020;28;20032;-69
2023/08/14 06:53:54;;;;;;;23.40;16.33;;;;;;;17.47;100.00;101389.16;5080549;28;20460;-69
2023/08/14 06:56:19;;;;;;;19.98;12.57;;;;;;;17.53;100.00;101382.84;5093729;28;20119;-69
2023/08/14 06:58:45;;;;;;;20.90;12.05;;;;;;;17.59;100.00;101391.91;5093283;28;20024;-69
2023/08/14 07:01:10;;;;;;;19.70;12.25;;;;;;;17.61;100.00;101392.50;5094104;28;20064;-69
2023/08/14 07:03:35;;;;;;;22.35;12.20;;;;;;;17.55;100.00;101377.22;5090880;28;20032;-69
2023/08/14 07:06:01;;;;;;;19.67;12.35;;;;;;;17.66;100.00;101381.84;5090648;28;21052;-70
2023/08/14 07:08:28;;;;;;;22.83;13.50;;;;;;;17.77;100.00;101382.91;5090605;28;20458;-70
2023/08/14 07:10:53;;;;;;;20.98;13.25;;;;;;;17.88;100.00;101380.25;5090497;28;20028;-70
2023/08/14 07:13:19;;;;;;;21.23;14.65;;;;;;;18.01;100.00;101386.50;5089487;28;20100;-69
2023/08/14 07:15:47;;;;;;;21.30;13.68;;;;;;;18.20;100.00;101385.34;5089307;28;20063;-69
2023/08/14 07:18:14;;;;;;;24.27;13.32;;;;;;;18.43;100.00;101384.53;5090545;28;20392;-70
2023/08/14 07:20:40;;;;;;;22.98;12.82;;;;;;;18.64;100.00;101390.38;5082425;28;20105;-69
2023/08/14 07:23:05;;;;;;;17.27;10.50;;;;;;;18.77;100.00;101376.63;5072423;28;20036;-69
2023/08/14 07:25:31;;;;;;;21.48;9.93;;;;;;;18.74;100.00;101377.91;5074535;28;20025;-70
2023/08/14 07:27:56;;;;;;;16.58;9.77;;;;;;;18.67;100.00;101385.31;5073820;28;20034;-70
2023/08/14 07:30:22;;;;;;;17.50;9.27;;;;;;;18.70;100.00;101384.81;5073411;28;20103;-69
2023/08/14 07:32:47;;;;;;;15.35;9.63;;;;;;;18.71;100.00;101375.69;5074110;28;20039;-71
2023/08/14 07:35:12;;;;;;;17.45;8.27;;;;;;;18.73;100.00;101378.97;5070718;28;20020;-71
2023/08/14 07:37:38;;;;;;;15.80;8.27;;;;;;;18.76;100.00;101389.34;5074004;28;20067;-70
2023/08/14 07:40:06;;;;;;;11.82;7.05;;;;;;;18.86;100.00;101386.00;5074431;28;20502;-70
2023/08/14 07:42:31;;;;;;;13.18;7.50;;;;;;;18.99;100.00;101403.84;5072599;28;20044;-70
2023/08/14 07:44:57;;;;;;;15.55;7.85;;;;;;;19.00;100.00;101397.38;5074084;28;20031;-72
2023/08/14 07:47:22;;;;;;;16.73;7.93;;;;;;;18.96;100.00;101415.13;5073037;28;20051;-69
2023/08/14 07:49:48;;;;;;;14.90;8.70;;;;;;;18.89;100.00;101412.56;5072542;28;20028;-70
2023/08/14 07:52:13;;;;;;;14.60;8.27;;;;;;;18.94;100.00;101426.19;5072889;28;20089;-71
2023/08/14 07:54:38;;;;;;;18.38;9.70;;;;;;;19.03;100.00;101410.41;5073426;28;20032;-70
2023/08/14 07:57:04;;;;;;;18.25;9.50;;;;;;;19.06;100.00;101404.53;5070221;28;20395;-70
2023/08/14 07:59:29;;;;;;;19.10;10.10;;;;;;;19.16;100.00;101412.03;5069474;28;20103;-70
2023/08/14 08:01:54;;;;;;;19.73;9.32;;;;;;;19.29;100.00;101405.53;5069725;28;20576;-68
2023/08/14 08:04:20;;;;;;;19.95;9.90;;;;;;;19.39;100.00;101400.31;5070169;28;20070;-68
2023/08/14 08:06:45;;;;;;;16.80;10.00;;;;;;;19.51;100.00;101409.19;5070281;28;20039;-68
2023/08/14 08:09:12;;;;;;;15.23;7.95;;;;;;;19.60;100.00;101410.44;5069428;28;20028;-68
2023/08/14 08:11:37;;;;;;;17.70;9.95;;;;;;;19.85;100.00;101414.69;5089308;28;20070;-68
2023/08/14 08:14:05;;;;;;;18.27;8.90;;;;;;;21.06;100.00;101419.44;5089377;28;20071;-68
2023/08/14 08:16:34;;;;;;;17.33;7.60;;;;;;;23.52;95.41;101413.06;5088035;28;20036;-68
2023/08/14 08:19:01;;;;;;;17.17;7.60;;;;;;;25.59;81.32;101417.53;5089551;28;20028;-68
2023/08/14 08:21:27;;;;;;;10.48;6.35;;;;;;;27.39;70.69;101415.72;5088152;28;20475;-68
2023/08/14 08:23:52;;;;;;;15.63;6.07;;;;;;;28.37;62.49;101405.59;5070021;28;20039;-68
2023/08/14 08:26:17;;;;;;;10.02;5.68;;;;;;;28.71;60.21;101400.84;5069901;28;20532;-68
2023/08/14 08:28:43;;;;;;;12.35;5.78;;;;;;;29.61;59.96;101412.06;5069786;28;20051;-68
2023/08/14 08:31:08;;;;;;;15.43;5.80;;;;;;;30.51;57.30;101400.97;5069978;28;20033;-68
2023/08/14 08:33:34;;;;;;;7.13;4.93;;;;;;;31.43;53.92;101388.03;5069658;28;20036;-68
2023/08/14 08:35:59;;;;;;;10.38;4.35;;;;;;;31.54;49.70;101382.19;5069488;28;20139;-68
2023/08/14 08:38:24;;;;;;;8.55;3.63;;;;;;;31.25;49.25;101380.88;5087560;28;20028;-69
2023/08/14 08:40:51;;;;;;;9.85;4.00;;;;;;;31.41;49.93;101379.31;5089276;28;20043;-68
2023/08/14 08:43:19;;;;;;;14.88;4.70;;;;;;;31.84;50.77;101377.59;5089021;28;20131;-68
2023/08/14 08:45:50;;;;;;;7.88;4.05;;;;;;;32.05;50.62;101366.69;5087592;28;20044;-68
2023/08/14 08:48:20;;;;;;;7.13;3.92;;;;;;;32.53;48.25;101369.09;5088897;28;20031;-69
2023/08/14 08:50:47;;;;;;;8.63;5.13;;;;;;;32.48;46.57;101372.03;5089054;28;20047;-68
2023/08/14 08:53:14;;;;;;;11.75;4.78;;;;;;;31.83;48.71;101353.91;5088560;28;20070;-69
2023/08/14 08:55:39;;;;;;;12.32;4.38;;;;;;;30.35;50.02;101365.63;5086949;28;20445;-68
2023/08/14 08:58:06;;;;;;;6.97;3.72;;;;;;;28.83;54.49;101365.44;5088794;28;20028;-68
2023/08/14 09:00:32;;;;;;;6.63;3.28;;;;;;;27.50;58.58;101365.94;5088141;28;20125;-68
2023/08/14 09:02:57;;;;;;;8.10;4.25;;;;;;;26.27;61.02;101368.59;5088712;28;20138;-68
2023/08/14 09:05:23;;;;;;;12.13;4.65;;;;;;;25.22;62.24;101363.44;5087437;28;20425;-68
2023/08/14 09:07:49;;;;;;;9.77;4.50;;;;;;;24.61;68.19;101341.91;5088899;28;20032;-68
2023/08/14 09:10:15;;;;;;;16.30;3.38;;;;;;;24.32;72.82;101350.69;5087355;28;20061;-68
2023/08/14 09:12:40;;;;;;;6.38;3.40;;;;;;;23.99;70.18;101355.63;5088501;28;20089;-68
2023/08/14 09:15:09;;;;;;;6.60;2.70;;;;;;;23.81;74.08;101348.03;5090458;28;20118;-68
2023/08/14 09:17:35;;;;;;;5.88;2.55;;;;;;;23.76;74.98;101343.44;5092810;28;20031;-68
2023/08/14 09:20:02;;;;;;;8.07;3.00;;;;;;;23.66;73.72;101348.00;5080080;28;20058;-68
2023/08/14 09:22:28;;;;;;;7.85;3.15;;;;;;;23.61;74.62;101346.13;5092626;28;20031;-68
2023/08/14 09:24:55;;;;;;;9.20;2.63;;;;;;;23.45;72.47;101348.00;5092749;28;20032;-68
2023/08/14 09:27:21;;;;;;;10.93;2.67;;;;;;;23.37;72.11;101349.38;5092596;28;20032;-68
2023/08/14 09:29:47;;;;;;;8.75;3.50;;;;;;;23.50;77.32;101336.28;5073987;28;20043;-68
2023/08/14 09:32:12;;;;;;;8.40;3.33;;;;;;;23.59;76.08;101349.09;5073270;28;20032;-68
2023/08/14 09:34:37;;;;;;;4.13;2.55;;;;;;;23.60;73.86;101344.47;5073031;28;20090;-68
2023/08/14 09:37:06;;;;;;;8.82;2.78;;;;;;;23.61;73.39;101355.09;5073149;28;20056;-68
2023/08/14 09:39:31;;;;;;;7.57;2.28;;;;;;;23.68;75.23;101354.00;5091889;28;20032;-68
2023/08/14 09:41:57;;;;;;;6.95;3.03;;;;;;;23.70;72.95;101357.28;5091973;28;20060;-68
2023/08/14 09:44:25;;;;;;;10.27;2.63;;;;;;;23.72;71.90;101366.03;5092362;28;20024;-68
2023/08/14 09:46:53;;;;;;;4.90;1.90;;;;;;;23.78;71.68;101371.19;5092228;28;20557;-68
2023/08/14 09:49:18;;;;;;;4.47;2.60;;;;;;;23.80;69.47;101373.66;5092356;28;20032;-68
2023/08/14 09:51:53;;;;;;;5.22;2.25;;;;;;;23.90;71.19;101373.66;5091945;28;20178;-68
2023/08/14 09:54:19;;;;;;;8.05;2.83;;;;;;;23.83;68.89;101367.66;5092087;28;20031;-68
2023/08/14 09:56:45;;;;;;;6.25;1.67;;;;;;;23.96;69.71;101372.53;5090664;28;20028;-68
2023/08/14 09:59:10;;;;;;;5.28;1.92;;;;;;;24.05;70.59;101360.00;5091024;28;20716;-68
2023/08/14 10:01:37;;;;;;;7.05;2.03;;;;;;;24.20;72.87;101369.25;5091877;28;20057;-68
2023/08/14 10:04:04;;;;;;;5.15;2.28;;;;;;;24.12;67.25;101365.16;5091700;28;20082;-68
2023/08/14 10:06:30;;;;;;;5.88;2.65;;;;;;;24.14;70.34;101357.53;5083118;28;20033;-67
2023/08/14 10:08:57;;;;;;;7.25;2.17;;;;;;;24.19;70.11;101341.19;5070284;28;20361;-68
2023/08/14 10:11:26;;;;;;;5.72;2.05;;;;;;;24.33;72.46;101346.84;5090778;28;20593;-68
2023/08/14 10:13:55;;;;;;;9.00;1.80;;;;;;;24.41;70.53;101337.28;5091796;28;20020;-68
2023/08/14 10:16:27;;;;;;;7.95;2.67;;;;;;;24.54;69.31;101338.66;5091905;28;20032;-67
2023/08/14 10:18:57;;;;;;;4.47;1.70;;;;;;;24.46;66.35;101327.22;5091746;28;20030;-67
2023/08/14 10:21:30;;;;;;;4.75;1.90;;;;;;;24.36;66.62;101327.22;5090445;28;20027;-68
2023/08/14 10:23:58;;;;;;;3.03;1.67;;;;;;;24.40;69.71;101317.41;5091502;28;20028;-68
2023/08/14 10:26:24;;;;;;;6.00;1.95;;;;;;;24.54;68.25;101312.19;5091414;28;20027;-68
2023/08/14 10:28:50;;;;;;;1.92;1.67;;;;;;;24.57;67.64;101308.91;5091356;28;20671;-68
2023/08/14 10:31:16;;;;;;;2.92;1.52;;;;;;;24.74;66.59;101305.81;5091282;28;20331;-68
2023/08/14 10:33:42;;;;;;;5.05;1.77;;;;;;;24.77;65.25;101302.53;5091415;28;20085;-68
2023/08/14 10:36:17;;;;;;;6.70;1.60;;;;;;;24.67;62.12;101295.22;5074703;28;20384;-68
2023/08/14 10:38:50;;;;;;;5.38;1.75;;;;;;;24.69;63.46;101298.47;5089863;28;20139;-68
2023/08/14 10:41:17;;;;;;;2.15;1.10;;;;;;;24.66;60.04;101290.06;5090727;28;20036;-68
2023/08/14 10:43:43;;;;;;;2.80;1.25;;;;;;;24.77;65.32;101282.63;5091159;28;20055;-67
2023/08/14 10:46:15;;;;;;;6.50;1.52;;;;;;;24.88;63.04;101289.66;5090884;28;20077;-67
2023/08/14 10:48:42;;;;;;;3.42;1.40;;;;;;;24.91;62.28;101289.88;5091016;28;20039;-68
2023/08/14 10:51:08;;;;;;;5.20;1.80;;;;;;;25.09;64.93;101282.94;5090993;28;20127;-70
2023/08/14 10:53:35;;;;;;;4.03;2.10;;;;;;;25.16;61.63;101285.41;5081331;28;20032;-70
2023/08/14 10:56:00;;;;;;;3.13;1.60;;;;;;;25.11;61.83;101282.69;5074233;28;20032;-68
2023/08/14 10:58:29;;;;;;;6.15;1.98;;;;;;;25.15;61.85;101300.09;5074255;28;20032;-69
2023/08/14 11:00:55;;;;;;;1.98;1.42;;;;;;;25.22;62.52;101300.63;5074524;28;20035;-69
2023/08/14 11:03:20;;;;;;;4.28;1.77;;;;;;;25.27;61.77;101294.34;5073692;28;20039;-69
2023/08/14 11:05:46;;;;;;;5.35;2.13;;;;;;;25.38;62.34;101284.16;5073480;28;20020;-69
2023/08/14 11:08:14;;;;;;;3.28;2.00;;;;;;;25.32;59.75;101289.63;5074299;28;20405;-70